createdAt,value
2018-04-06T00:00:58.707Z,-60.00
2018-04-06T00:01:58.670Z,-60.00
2018-04-06T00:02:58.644Z,-60.00
2018-04-06T00:03:58.614Z,-60.00
2018-04-06T00:04:58.594Z,-60.00
2018-04-06T00:05:58.564Z,-60.00
2018-04-06T00:06:58.541Z,-60.00
2018-04-06T00:07:58.505Z,-60.00
2018-04-06T00:08:58.476Z,-60.00
2018-04-06T00:09:58.448Z,-60.00
2018-04-06T00:10:58.419Z,-60.00
2018-04-06T00:11:58.397Z,-60.00
2018-04-06T00:12:58.363Z,-60.00
2018-04-06T00:13:58.330Z,-60.00
2018-04-06T00:14:58.306Z,-60.00
2018-04-06T00:15:58.276Z,-60.00
2018-04-06T00:16:58.252Z,-60.00
2018-04-06T00:17:58.227Z,-60.00
2018-04-06T00:18:58.190Z,-60.00
2018-04-06T00:19:58.163Z,-60.00
2018-04-06T00:20:58.146Z,-60.00
2018-04-06T00:21:58.106Z,-60.00
2018-04-06T00:22:58.081Z,-60.00
2018-04-06T00:23:58.064Z,-60.00
2018-04-06T00:24:58.029Z,-60.00
2018-04-06T00:25:58.004Z,-59.00
2018-04-06T00:26:57.967Z,-60.00
2018-04-06T00:27:57.940Z,-60.00
2018-04-06T00:28:57.914Z,-59.00
2018-04-06T00:29:57.886Z,-59.00
2018-04-06T00:30:57.860Z,-60.00
2018-04-06T00:31:57.831Z,-60.00
2018-04-06T00:32:57.798Z,-60.00
2018-04-06T00:33:57.772Z,-60.00
2018-04-06T00:34:57.760Z,-60.00
2018-04-06T00:35:57.713Z,-60.00
2018-04-06T00:36:57.688Z,-59.00
2018-04-06T00:37:57.680Z,-60.00
2018-04-06T00:38:57.627Z,-60.00
2018-04-06T00:39:57.605Z,-59.00
2018-04-06T00:40:57.580Z,-59.00
2018-04-06T00:41:57.585Z,-59.00
2018-04-06T00:42:57.522Z,-59.00
2018-04-06T00:43:57.484Z,-60.00
2018-04-06T00:44:57.459Z,-60.00
2018-04-06T00:45:57.439Z,-59.00
2018-04-06T00:46:57.403Z,-59.00
2018-04-06T00:47:57.379Z,-60.00
2018-04-06T00:48:57.350Z,-60.00
2018-04-06T00:49:57.318Z,-59.00
2018-04-06T00:50:57.307Z,-59.00
2018-04-06T00:51:57.264Z,-59.00
2018-04-06T00:52:57.236Z,-59.00
2018-04-06T00:53:57.212Z,-59.00
2018-04-06T00:54:57.183Z,-59.00
2018-04-06T00:55:57.151Z,-60.00
2018-04-06T00:56:57.122Z,-59.00
2018-04-06T00:57:57.095Z,-60.00
2018-04-06T00:58:57.073Z,-60.00
2018-04-06T00:59:57.042Z,-60.00
2018-04-06T01:00:57.009Z,-60.00
2018-04-06T01:01:56.991Z,-60.00
2018-04-06T01:02:56.958Z,-59.00
2018-04-06T01:03:56.925Z,-59.00
2018-04-06T01:04:56.897Z,-59.00
2018-04-06T01:05:56.874Z,-59.00
2018-04-06T01:06:56.836Z,-59.00
2018-04-06T01:07:56.811Z,-60.00
2018-04-06T01:08:56.785Z,-60.00
2018-04-06T01:09:56.756Z,-60.00
2018-04-06T01:10:56.731Z,-59.00
2018-04-06T01:11:56.700Z,-60.00
2018-04-06T01:12:56.671Z,-60.00
2018-04-06T01:13:56.644Z,-59.00
2018-04-06T01:14:56.610Z,-59.00
2018-04-06T01:15:56.585Z,-59.00
2018-04-06T01:16:56.562Z,-59.00
2018-04-06T01:17:56.526Z,-59.00
2018-04-06T01:18:56.505Z,-60.00
2018-04-06T01:19:56.469Z,-59.00
2018-04-06T01:20:56.446Z,-60.00
2018-04-06T01:21:56.423Z,-60.00
2018-04-06T01:22:56.387Z,-60.00
2018-04-06T01:23:56.361Z,-60.00
2018-04-06T01:24:56.349Z,-59.00
2018-04-06T01:25:56.302Z,-60.00
2018-04-06T01:26:56.274Z,-59.00
2018-04-06T01:27:56.246Z,-59.00
2018-04-06T01:28:56.222Z,-60.00
2018-04-06T01:29:56.191Z,-59.00
2018-04-06T01:30:56.161Z,-59.00
2018-04-06T01:31:56.136Z,-59.00
2018-04-06T01:32:56.106Z,-60.00
2018-04-06T01:33:56.078Z,-60.00
2018-04-06T01:34:56.046Z,-59.00
2018-04-06T01:35:56.021Z,-59.00
2018-04-06T01:36:55.996Z,-59.00
2018-04-06T01:37:55.967Z,-59.00
2018-04-06T01:38:55.932Z,-59.00
2018-04-06T01:39:55.905Z,-59.00
2018-04-06T01:40:55.878Z,-60.00
2018-04-06T01:41:55.850Z,-60.00
2018-04-06T01:42:55.825Z,-60.00
2018-04-06T01:43:55.801Z,-60.00
2018-04-06T01:44:55.764Z,-60.00
2018-04-06T01:45:55.738Z,-60.00
2018-04-06T01:46:55.710Z,-60.00
2018-04-06T01:47:55.681Z,-60.00
2018-04-06T01:48:55.652Z,-60.00
2018-04-06T01:49:55.629Z,-60.00
2018-04-06T01:50:55.597Z,-60.00
2018-04-06T01:51:55.572Z,-60.00
2018-04-06T01:52:55.565Z,-60.00
2018-04-06T01:53:55.514Z,-60.00
2018-04-06T01:54:55.485Z,-60.00
2018-04-06T01:55:55.454Z,-60.00
2018-04-06T01:56:55.423Z,-59.00
2018-04-06T01:57:55.405Z,-59.00
2018-04-06T01:58:55.372Z,-60.00
2018-04-06T01:59:55.366Z,-60.00
2018-04-06T02:00:55.313Z,-60.00
2018-04-06T02:01:55.288Z,-59.00
2018-04-06T02:02:55.260Z,-59.00
2018-04-06T02:03:55.230Z,-59.00
2018-04-06T02:04:55.201Z,-59.00
2018-04-06T02:05:55.176Z,-59.00
2018-04-06T02:06:55.151Z,-59.00
2018-04-06T02:07:55.110Z,-59.00
2018-04-06T02:08:55.090Z,-59.00
2018-04-06T02:09:55.059Z,-58.00
2018-04-06T02:10:55.029Z,-59.00
2018-04-06T02:11:55.003Z,-59.00
2018-04-06T02:12:54.981Z,-60.00
2018-04-06T02:13:54.945Z,-60.00
2018-04-06T02:14:54.917Z,-60.00
2018-04-06T02:15:54.890Z,-60.00
2018-04-06T02:16:54.861Z,-60.00
2018-04-06T02:17:54.840Z,-60.00
2018-04-06T02:18:54.801Z,-60.00
2018-04-06T02:19:54.772Z,-59.00
2018-04-06T02:20:54.753Z,-59.00
2018-04-06T02:21:54.734Z,-60.00
2018-04-06T02:22:54.686Z,-59.00
2018-04-06T02:23:54.666Z,-60.00
2018-04-06T02:24:54.639Z,-60.00
2018-04-06T02:25:54.603Z,-59.00
2018-04-06T02:26:54.580Z,-60.00
2018-04-06T02:27:54.552Z,-60.00
2018-04-06T02:28:54.515Z,-60.00
2018-04-06T02:29:54.488Z,-60.00
2018-04-06T02:30:54.466Z,-59.00
2018-04-06T02:31:54.436Z,-60.00
2018-04-06T02:32:54.406Z,-59.00
2018-04-06T02:33:54.383Z,-60.00
2018-04-06T02:34:54.350Z,-60.00
2018-04-06T02:35:54.323Z,-60.00
2018-04-06T02:36:54.291Z,-60.00
2018-04-06T02:37:54.267Z,-60.00
2018-04-06T02:38:54.236Z,-59.00
2018-04-06T02:39:54.200Z,-60.00
2018-04-06T02:40:54.176Z,-59.00
2018-04-06T02:41:54.148Z,-59.00
2018-04-06T02:42:54.115Z,-60.00
2018-04-06T02:43:54.095Z,-60.00
2018-04-06T02:44:54.067Z,-60.00
2018-04-06T02:45:54.030Z,-60.00
2018-04-06T02:46:54.022Z,-59.00
2018-04-06T02:47:53.977Z,-60.00
2018-04-06T02:48:53.945Z,-60.00
2018-04-06T02:49:53.918Z,-60.00
2018-04-06T02:50:53.892Z,-59.00
2018-04-06T02:51:53.860Z,-60.00
2018-04-06T02:52:53.839Z,-59.00
2018-04-06T02:53:53.810Z,-60.00
2018-04-06T02:54:53.773Z,-60.00
2018-04-06T02:55:53.750Z,-59.00
2018-04-06T02:56:53.720Z,-59.00
2018-04-06T02:57:53.695Z,-60.00
2018-04-06T02:58:53.666Z,-60.00
2018-04-06T02:59:53.634Z,-59.00
2018-04-06T03:00:53.603Z,-60.00
2018-04-06T03:01:53.578Z,-60.00
2018-04-06T03:02:53.546Z,-60.00
2018-04-06T03:03:53.520Z,-60.00
2018-04-06T03:04:53.494Z,-60.00
2018-04-06T03:05:53.469Z,-59.00
2018-04-06T03:06:53.449Z,-59.00
2018-04-06T03:07:53.403Z,-60.00
2018-04-06T03:08:53.384Z,-60.00
2018-04-06T03:09:53.359Z,-60.00
2018-04-06T03:10:53.316Z,-60.00
2018-04-06T03:11:53.325Z,-59.00
2018-04-06T03:12:53.290Z,-59.00
2018-04-06T03:13:53.249Z,-59.00
2018-04-06T03:14:53.228Z,-59.00
2018-04-06T03:15:53.186Z,-60.00
2018-04-06T03:16:53.151Z,-59.00
2018-04-06T03:17:53.121Z,-59.00
2018-04-06T03:18:53.097Z,-60.00
2018-04-06T03:19:53.070Z,-60.00
2018-04-06T03:20:53.033Z,-59.00
2018-04-06T03:21:53.015Z,-59.00
2018-04-06T03:22:52.983Z,-59.00
2018-04-06T03:23:52.950Z,-59.00
2018-04-06T03:24:52.927Z,-60.00
2018-04-06T03:25:52.895Z,-60.00
2018-04-06T03:26:52.865Z,-59.00
2018-04-06T03:27:52.842Z,-60.00
2018-04-06T03:28:52.815Z,-60.00
2018-04-06T03:29:52.783Z,-60.00
2018-04-06T03:30:52.764Z,-59.00
2018-04-06T03:31:52.726Z,-59.00
2018-04-06T03:32:52.713Z,-59.00
2018-04-06T03:33:52.669Z,-60.00
2018-04-06T03:34:52.638Z,-60.00
2018-04-06T03:35:52.613Z,-59.00
2018-04-06T03:36:52.587Z,-59.00
2018-04-06T03:37:52.556Z,-59.00
2018-04-06T03:38:52.523Z,-59.00
2018-04-06T03:39:52.499Z,-59.00
2018-04-06T03:40:52.469Z,-60.00
2018-04-06T03:41:52.456Z,-60.00
2018-04-06T03:42:52.413Z,-59.00
2018-04-06T03:43:52.384Z,-59.00
2018-04-06T03:44:52.367Z,-60.00
2018-04-06T03:45:52.331Z,-59.00
2018-04-06T03:46:52.304Z,-60.00
2018-04-06T03:47:52.280Z,-59.00
2018-04-06T03:48:52.249Z,-60.00
2018-04-06T03:49:52.225Z,-59.00
2018-04-06T03:50:52.193Z,-59.00
2018-04-06T03:51:52.158Z,-60.00
2018-04-06T03:52:52.135Z,-60.00
2018-04-06T03:53:52.100Z,-60.00
2018-04-06T03:54:52.078Z,-59.00
2018-04-06T03:55:52.066Z,-60.00
2018-04-06T03:56:52.021Z,-60.00
2018-04-06T03:57:51.984Z,-60.00
2018-04-06T03:58:51.976Z,-59.00
2018-04-06T03:59:51.934Z,-59.00
2018-04-06T04:00:51.899Z,-60.00
2018-04-06T04:01:51.874Z,-59.00
2018-04-06T04:02:51.850Z,-59.00
2018-04-06T04:03:51.814Z,-59.00
2018-04-06T04:04:51.781Z,-60.00
2018-04-06T04:05:51.763Z,-59.00
2018-04-06T04:06:51.742Z,-59.00
2018-04-06T04:07:51.702Z,-60.00
2018-04-06T04:08:51.669Z,-59.00
2018-04-06T04:09:51.638Z,-60.00
2018-04-06T04:10:51.607Z,-60.00
2018-04-06T04:11:51.605Z,-60.00
2018-04-06T04:12:51.562Z,-60.00
2018-04-06T04:13:51.534Z,-59.00
2018-04-06T04:14:51.508Z,-59.00
2018-04-06T04:15:51.467Z,-59.00
2018-04-06T04:16:51.449Z,-59.00
2018-04-06T04:17:51.414Z,-59.00
2018-04-06T04:18:51.385Z,-59.00
2018-04-06T04:19:51.354Z,-59.00
2018-04-06T04:20:51.331Z,-59.00
2018-04-06T04:21:51.294Z,-59.00
2018-04-06T04:22:51.273Z,-60.00
2018-04-06T04:23:51.242Z,-59.00
2018-04-06T04:24:51.210Z,-60.00
2018-04-06T04:25:51.188Z,-59.00
2018-04-06T04:26:51.158Z,-59.00
2018-04-06T04:27:51.119Z,-59.00
2018-04-06T04:28:51.096Z,-60.00
2018-04-06T04:29:51.069Z,-59.00
2018-04-06T04:30:51.038Z,-60.00
2018-04-06T04:31:51.012Z,-59.00
2018-04-06T04:32:50.989Z,-59.00
2018-04-06T04:33:50.953Z,-59.00
2018-04-06T04:34:50.924Z,-59.00
2018-04-06T04:35:50.895Z,-59.00
2018-04-06T04:36:50.872Z,-59.00
2018-04-06T04:37:50.869Z,-60.00
2018-04-06T04:38:50.823Z,-60.00
2018-04-06T04:39:50.777Z,-59.00
2018-04-06T04:40:50.781Z,-59.00
2018-04-06T04:41:50.730Z,-59.00
2018-04-06T04:42:50.701Z,-59.00
2018-04-06T04:43:50.670Z,-59.00
2018-04-06T04:44:50.647Z,-59.00
2018-04-06T04:45:50.608Z,-59.00
2018-04-06T04:46:50.589Z,-59.00
2018-04-06T04:47:50.584Z,-60.00
2018-04-06T04:48:50.527Z,-59.00
2018-04-06T04:49:50.498Z,-59.00
2018-04-06T04:50:50.470Z,-59.00
2018-04-06T04:51:50.439Z,-59.00
2018-04-06T04:52:50.413Z,-59.00
2018-04-06T04:53:50.380Z,-59.00
2018-04-06T04:54:50.349Z,-59.00
2018-04-06T04:55:50.326Z,-60.00
2018-04-06T04:56:50.294Z,-59.00
2018-04-06T04:57:50.266Z,-59.00
2018-04-06T04:58:50.234Z,-59.00
2018-04-06T04:59:50.207Z,-60.00
2018-04-06T05:00:50.195Z,-59.00
2018-04-06T05:01:50.148Z,-59.00
2018-04-06T05:02:50.120Z,-57.00
2018-04-06T05:03:50.111Z,-59.00
2018-04-06T05:04:50.077Z,-59.00
2018-04-06T05:05:50.034Z,-59.00
2018-04-06T05:06:50.024Z,-59.00
2018-04-06T05:07:49.981Z,-60.00
2018-04-06T05:08:49.953Z,-59.00
2018-04-06T05:09:49.951Z,-59.00
2018-04-06T05:10:49.908Z,-59.00
2018-04-06T05:11:49.877Z,-59.00
2018-04-06T05:12:49.834Z,-59.00
2018-04-06T05:13:49.804Z,-59.00
2018-04-06T05:14:49.785Z,-59.00
2018-04-06T05:15:49.784Z,-60.00
2018-04-06T05:16:49.725Z,-59.00
2018-04-06T05:17:49.694Z,-59.00
2018-04-06T05:18:49.664Z,-59.00
2018-04-06T05:19:49.639Z,-59.00
2018-04-06T05:20:49.609Z,-59.00
2018-04-06T05:21:49.579Z,-59.00
2018-04-06T05:22:49.547Z,-59.00
2018-04-06T05:23:49.518Z,-59.00
2018-04-06T05:24:49.492Z,-59.00
2018-04-06T05:25:49.465Z,-59.00
2018-04-06T05:26:49.434Z,-59.00
2018-04-06T05:27:49.412Z,-59.00
2018-04-06T05:28:49.374Z,-58.00
2018-04-06T05:29:49.349Z,-59.00
2018-04-06T05:30:49.324Z,-59.00
2018-04-06T05:31:49.287Z,-59.00
2018-04-06T05:32:49.268Z,-59.00
2018-04-06T05:33:49.235Z,-59.00
2018-04-06T05:34:49.202Z,-59.00
2018-04-06T05:35:49.182Z,-59.00
2018-04-06T05:36:49.152Z,-59.00
2018-04-06T05:37:49.118Z,-59.00
2018-04-06T05:38:49.118Z,-59.00
2018-04-06T05:39:49.067Z,-59.00
2018-04-06T05:40:49.029Z,-59.00
2018-04-06T05:41:49.004Z,-59.00
2018-04-06T05:42:48.977Z,-59.00
2018-04-06T05:43:48.948Z,-59.00
2018-04-06T05:44:48.919Z,-59.00
2018-04-06T05:45:48.892Z,-59.00
2018-04-06T05:46:48.861Z,-59.00
2018-04-06T05:47:48.851Z,-59.00
2018-04-06T05:48:48.803Z,-59.00
2018-04-06T05:49:48.777Z,-59.00
2018-04-06T05:50:48.745Z,-59.00
2018-04-06T05:51:48.720Z,-59.00
2018-04-06T05:52:48.687Z,-59.00
2018-04-06T05:53:48.661Z,-59.00
2018-04-06T05:54:48.629Z,-59.00
2018-04-06T05:55:48.603Z,-59.00
2018-04-06T05:56:48.578Z,-59.00
2018-04-06T05:57:48.548Z,-59.00
2018-04-06T05:58:48.515Z,-59.00
2018-04-06T05:59:48.502Z,-59.00
2018-04-06T06:00:48.467Z,-59.00
2018-04-06T06:01:48.433Z,-59.00
2018-04-06T06:02:48.405Z,-60.00
2018-04-06T06:03:48.380Z,-60.00
2018-04-06T06:04:48.346Z,-60.00
2018-04-06T06:05:48.316Z,-59.00
2018-04-06T06:06:48.289Z,-62.00
2018-04-06T06:07:48.261Z,-63.00
2018-04-06T06:08:48.251Z,-63.00
2018-04-06T06:09:48.240Z,-63.00
2018-04-06T06:10:48.184Z,-63.00
2018-04-06T06:11:48.147Z,-63.00
2018-04-06T06:12:48.117Z,-63.00
2018-04-06T06:13:48.093Z,-63.00
2018-04-06T06:14:48.056Z,-63.00
2018-04-06T06:15:48.031Z,-63.00
2018-04-06T06:16:48.008Z,-63.00
2018-04-06T06:17:48.041Z,-63.00
2018-04-06T06:18:47.945Z,-63.00
2018-04-06T06:19:47.922Z,-63.00
2018-04-06T06:20:47.888Z,-63.00
2018-04-06T06:21:47.866Z,-63.00
2018-04-06T06:22:47.838Z,-63.00
2018-04-06T06:23:47.805Z,-63.00
2018-04-06T06:24:47.775Z,-63.00
2018-04-06T06:25:47.746Z,-63.00
2018-04-06T06:26:47.722Z,-63.00
2018-04-06T06:27:47.693Z,-63.00
2018-04-06T06:28:47.663Z,-63.00
2018-04-06T06:29:47.642Z,-63.00
2018-04-06T06:30:47.600Z,-63.00
2018-04-06T06:31:47.579Z,-63.00
2018-04-06T06:32:47.556Z,-63.00
2018-04-06T06:33:47.523Z,-63.00
2018-04-06T06:34:47.496Z,-63.00
2018-04-06T06:35:47.465Z,-63.00
2018-04-06T06:36:47.436Z,-63.00
2018-04-06T06:37:47.412Z,-63.00
2018-04-06T06:38:47.373Z,-55.00
2018-04-06T06:39:47.352Z,-57.00
2018-04-06T06:40:47.330Z,-60.00
2018-04-06T06:41:47.306Z,-56.00
2018-04-06T06:42:47.270Z,-57.00
2018-04-06T06:43:47.240Z,-55.00
2018-04-06T06:44:47.210Z,-55.00
2018-04-06T06:45:47.185Z,-56.00
2018-04-06T06:46:47.156Z,-58.00
2018-04-06T06:47:47.134Z,-69.00
2018-04-06T06:48:47.101Z,-64.00
2018-04-06T06:49:47.075Z,-68.00
2018-04-06T06:50:47.047Z,-65.00
2018-04-06T06:51:47.017Z,-65.00
2018-04-06T06:52:46.996Z,-62.00
2018-04-06T06:53:46.955Z,-65.00
2018-04-06T06:54:46.936Z,-55.00
2018-04-06T06:55:46.902Z,-55.00
2018-04-06T06:56:46.874Z,-55.00
2018-04-06T06:57:46.856Z,-55.00
2018-04-06T06:58:46.819Z,-55.00
2018-04-06T06:59:46.789Z,-55.00
2018-04-06T07:00:46.761Z,-55.00
2018-04-06T07:01:46.732Z,-55.00
2018-04-06T07:02:46.709Z,-55.00
2018-04-06T07:03:46.680Z,-55.00
2018-04-06T07:04:46.650Z,-55.00
2018-04-06T07:05:46.624Z,-55.00
2018-04-06T07:06:46.590Z,-55.00
2018-04-06T07:07:46.564Z,-55.00
2018-04-06T07:08:46.541Z,-55.00
2018-04-06T07:09:46.519Z,-55.00
2018-04-06T07:10:46.480Z,-55.00
2018-04-06T07:11:46.456Z,-55.00
2018-04-06T07:12:46.425Z,-56.00
2018-04-06T07:13:46.404Z,-56.00
2018-04-06T07:14:46.368Z,-55.00
2018-04-06T07:15:46.361Z,-56.00
2018-04-06T07:16:46.315Z,-56.00
2018-04-06T07:17:46.288Z,-55.00
2018-04-06T07:18:46.280Z,-55.00
2018-04-06T07:19:46.232Z,-56.00
2018-04-06T07:20:46.211Z,-55.00
2018-04-06T07:21:46.177Z,-56.00
2018-04-06T07:22:46.149Z,-55.00
2018-04-06T07:23:46.124Z,-59.00
2018-04-06T07:24:46.094Z,-63.00
2018-04-06T07:25:46.068Z,-65.00
2018-04-06T07:26:46.041Z,-63.00
2018-04-06T07:27:46.028Z,-63.00
2018-04-06T07:28:45.985Z,-63.00
2018-04-06T07:29:45.960Z,-64.00
2018-04-06T07:30:45.930Z,-63.00
2018-04-06T07:31:45.906Z,-63.00
2018-04-06T07:32:45.881Z,-63.00
2018-04-06T07:33:45.850Z,-63.00
2018-04-06T07:34:45.823Z,-63.00
2018-04-06T07:35:45.795Z,-63.00
2018-04-06T07:36:45.768Z,-63.00
2018-04-06T07:37:45.785Z,-63.00
2018-04-06T07:38:45.721Z,-64.00
2018-04-06T07:39:45.686Z,-63.00
2018-04-06T07:40:45.659Z,-63.00
2018-04-06T07:41:45.632Z,-64.00
2018-04-06T07:42:45.604Z,-64.00
2018-04-06T07:43:45.577Z,-63.00
2018-04-06T07:44:45.549Z,-63.00
2018-04-06T07:45:45.520Z,-63.00
2018-04-06T07:46:45.491Z,-63.00
2018-04-06T07:47:45.466Z,-63.00
2018-04-06T07:48:45.440Z,-63.00
2018-04-06T07:49:45.419Z,-63.00
2018-04-06T07:50:45.421Z,-63.00
2018-04-06T07:51:45.368Z,-63.00
2018-04-06T07:52:45.333Z,-63.00
2018-04-06T07:53:45.309Z,-63.00
2018-04-06T07:54:45.280Z,-63.00
2018-04-06T07:55:45.256Z,-63.00
2018-04-06T07:56:45.223Z,-63.00
2018-04-06T07:57:45.201Z,-63.00
2018-04-06T07:58:45.169Z,-63.00
2018-04-06T07:59:45.153Z,-63.00
2018-04-06T08:00:45.114Z,-63.00
2018-04-06T08:01:45.083Z,-63.00
2018-04-06T08:02:45.056Z,-63.00
2018-04-06T08:03:45.027Z,-63.00
2018-04-06T08:04:45.003Z,-62.00
2018-04-06T08:05:44.975Z,-63.00
2018-04-06T08:06:44.954Z,-62.00
2018-04-06T08:07:44.919Z,-52.00
2018-04-06T08:08:44.896Z,-54.00
2018-04-06T08:09:44.872Z,-54.00
2018-04-06T08:10:44.834Z,-54.00
2018-04-06T08:11:44.810Z,-54.00
2018-04-06T08:12:44.786Z,-54.00
2018-04-06T08:13:44.755Z,-54.00
2018-04-06T08:14:44.728Z,-54.00
2018-04-06T08:15:44.703Z,-54.00
2018-04-06T08:16:44.671Z,-54.00
2018-04-06T08:17:44.652Z,-54.00
2018-04-06T08:18:44.621Z,-54.00
2018-04-06T08:19:44.594Z,-54.00
2018-04-06T08:20:44.561Z,-54.00
2018-04-06T08:21:44.538Z,-55.00
2018-04-06T08:22:44.516Z,-54.00
2018-04-06T08:23:44.478Z,-54.00
2018-04-06T08:24:44.459Z,-54.00
2018-04-06T08:25:44.434Z,-54.00
2018-04-06T08:26:44.407Z,-54.00
2018-04-06T08:27:44.372Z,-54.00
2018-04-06T08:28:44.365Z,-54.00
2018-04-06T08:29:44.318Z,-54.00
2018-04-06T08:30:44.288Z,-55.00
2018-04-06T08:31:44.264Z,-54.00
2018-04-06T08:32:44.232Z,-55.00
2018-04-06T08:33:44.207Z,-54.00
2018-04-06T08:34:44.184Z,-55.00
2018-04-06T08:35:44.147Z,-54.00
2018-04-06T08:36:44.133Z,-54.00
2018-04-06T08:37:44.099Z,-55.00
2018-04-06T08:38:44.069Z,-55.00
2018-04-06T08:39:44.061Z,-54.00
2018-04-06T08:40:44.025Z,-54.00
2018-04-06T08:41:43.987Z,-54.00
2018-04-06T08:42:43.959Z,-54.00
2018-04-06T08:43:43.937Z,-54.00
2018-04-06T08:44:43.902Z,-54.00
2018-04-06T08:45:43.884Z,-54.00
2018-04-06T08:46:43.866Z,-54.00
2018-04-06T08:47:43.821Z,-55.00
2018-04-06T08:48:43.802Z,-55.00
2018-04-06T08:49:43.771Z,-55.00
2018-04-06T08:50:43.752Z,-55.00
2018-04-06T08:51:43.718Z,-54.00
2018-04-06T08:52:43.688Z,-55.00
2018-04-06T08:53:43.662Z,-54.00
2018-04-06T08:54:43.675Z,-55.00
2018-04-06T08:55:43.604Z,-54.00
2018-04-06T08:56:43.583Z,-54.00
2018-04-06T08:57:43.554Z,-55.00
2018-04-06T08:58:43.524Z,-55.00
2018-04-06T08:59:43.501Z,-55.00
2018-04-06T09:00:43.470Z,-54.00
2018-04-06T09:01:43.440Z,-55.00
2018-04-06T09:02:43.416Z,-54.00
2018-04-06T09:03:43.391Z,-55.00
2018-04-06T09:04:43.424Z,-55.00
2018-04-06T09:05:43.339Z,-55.00
2018-04-06T09:06:43.374Z,-55.00
2018-04-06T09:07:43.283Z,-55.00
2018-04-06T09:08:43.254Z,-55.00
2018-04-06T09:09:43.230Z,-54.00
2018-04-06T09:10:43.198Z,-54.00
2018-04-06T09:11:43.175Z,-55.00
2018-04-06T09:12:43.168Z,-55.00
2018-04-06T09:13:43.118Z,-55.00
2018-04-06T09:14:43.092Z,-55.00
2018-04-06T09:15:43.070Z,-55.00
2018-04-06T09:16:43.037Z,-55.00
2018-04-06T09:17:43.008Z,-55.00
2018-04-06T09:18:42.983Z,-55.00
2018-04-06T09:19:42.954Z,-54.00
2018-04-06T09:20:42.929Z,-55.00
2018-04-06T09:21:42.902Z,-55.00
2018-04-06T09:22:42.872Z,-55.00
2018-04-06T09:23:42.847Z,-55.00
2018-04-06T09:24:42.824Z,-55.00
2018-04-06T09:25:42.790Z,-55.00
2018-04-06T09:26:42.765Z,-55.00
2018-04-06T09:27:42.741Z,-55.00
2018-04-06T09:28:42.713Z,-55.00
2018-04-06T09:29:42.692Z,-55.00
2018-04-06T09:30:42.652Z,-55.00
2018-04-06T09:31:42.632Z,-55.00
2018-04-06T09:32:42.603Z,-55.00
2018-04-06T09:33:42.576Z,-55.00
2018-04-06T09:34:42.550Z,-55.00
2018-04-06T09:35:42.526Z,-55.00
2018-04-06T09:36:42.493Z,-55.00
2018-04-06T09:37:42.466Z,-55.00
2018-04-06T09:38:42.437Z,-55.00
2018-04-06T09:39:42.415Z,-54.00
2018-04-06T09:40:42.383Z,-55.00
2018-04-06T09:41:42.362Z,-55.00
2018-04-06T09:42:42.331Z,-55.00
2018-04-06T09:43:42.306Z,-55.00
2018-04-06T09:44:42.289Z,-55.00
2018-04-06T09:45:42.259Z,-55.00
2018-04-06T09:46:42.228Z,-55.00
2018-04-06T09:47:42.198Z,-54.00
2018-04-06T09:48:42.172Z,-53.00
2018-04-06T09:49:42.152Z,-54.00
2018-04-06T09:50:42.118Z,-58.00
2018-04-06T09:51:42.089Z,-58.00
2018-04-06T09:52:42.062Z,-58.00
2018-04-06T09:53:42.034Z,-58.00
2018-04-06T09:54:42.006Z,-58.00
2018-04-06T09:55:41.983Z,-58.00
2018-04-06T09:56:41.955Z,-58.00
2018-04-06T09:57:41.932Z,-58.00
2018-04-06T09:58:41.901Z,-58.00
2018-04-06T09:59:41.874Z,-58.00
2018-04-06T10:00:41.850Z,-58.00
2018-04-06T10:01:41.822Z,-58.00
2018-04-06T10:02:41.795Z,-58.00
2018-04-06T10:03:41.764Z,-58.00
2018-04-06T10:04:41.739Z,-58.00
2018-04-06T10:05:41.715Z,-58.00
2018-04-06T10:06:41.682Z,-58.00
2018-04-06T10:07:41.658Z,-58.00
2018-04-06T10:08:41.632Z,-58.00
2018-04-06T10:09:41.750Z,-58.00
2018-04-06T10:10:41.578Z,-58.00
2018-04-06T10:11:41.551Z,-58.00
2018-04-06T10:12:41.526Z,-58.00
2018-04-06T10:13:41.494Z,-58.00
2018-04-06T10:14:41.471Z,-58.00
2018-04-06T10:15:41.460Z,-58.00
2018-04-06T10:16:41.414Z,-58.00
2018-04-06T10:17:41.393Z,-58.00
2018-04-06T10:18:41.358Z,-58.00
2018-04-06T10:19:41.332Z,-58.00
2018-04-06T10:20:41.314Z,-58.00
2018-04-06T10:21:41.274Z,-58.00
2018-04-06T10:22:41.259Z,-58.00
2018-04-06T10:23:41.222Z,-57.00
2018-04-06T10:24:41.197Z,-58.00
2018-04-06T10:25:41.174Z,-58.00
2018-04-06T10:26:41.144Z,-58.00
2018-04-06T10:27:41.118Z,-58.00
2018-04-06T10:28:41.090Z,-58.00
2018-04-06T10:29:41.066Z,-58.00
2018-04-06T10:30:41.048Z,-58.00
2018-04-06T10:31:41.031Z,-58.00
2018-04-06T10:32:40.986Z,-58.00
2018-04-06T10:33:40.958Z,-58.00
2018-04-06T10:34:40.928Z,-58.00
2018-04-06T10:35:40.903Z,-58.00
2018-04-06T10:36:40.916Z,-58.00
2018-04-06T10:37:40.850Z,-58.00
2018-04-06T10:38:40.827Z,-58.00
2018-04-06T10:39:40.805Z,-58.00
2018-04-06T10:40:40.769Z,-58.00
2018-04-06T10:41:40.751Z,-58.00
2018-04-06T10:42:40.712Z,-58.00
2018-04-06T10:43:40.692Z,-58.00
2018-04-06T10:44:40.669Z,-58.00
2018-04-06T10:45:40.638Z,-58.00
2018-04-06T10:46:40.605Z,-58.00
2018-04-06T10:47:40.584Z,-58.00
2018-04-06T10:48:40.551Z,-58.00
2018-04-06T10:49:40.525Z,-58.00
2018-04-06T10:50:40.499Z,-58.00
2018-04-06T10:51:40.477Z,-58.00
2018-04-06T10:52:40.445Z,-57.00
2018-04-06T10:53:40.461Z,-53.00
2018-04-06T10:54:40.393Z,-53.00
2018-04-06T10:55:40.375Z,-54.00
2018-04-06T10:56:40.353Z,-55.00
2018-04-06T10:57:40.320Z,-54.00
2018-04-06T10:58:40.287Z,-51.00
2018-04-06T10:59:40.263Z,-51.00
2018-04-06T11:00:40.236Z,-51.00
2018-04-06T11:01:40.208Z,-51.00
2018-04-06T11:02:40.180Z,-51.00
2018-04-06T11:03:40.153Z,-51.00
2018-04-06T11:04:40.127Z,-52.00
2018-04-06T11:05:40.099Z,-51.00
2018-04-06T11:06:40.079Z,-51.00
2018-04-06T11:07:40.048Z,-51.00
2018-04-06T11:08:40.019Z,-57.00
2018-04-06T11:09:39.992Z,-57.00
2018-04-06T11:10:39.969Z,-57.00
2018-04-06T11:11:39.944Z,-57.00
2018-04-06T11:12:39.911Z,-57.00
2018-04-06T11:13:39.888Z,-57.00
2018-04-06T11:14:39.860Z,-57.00
2018-04-06T11:15:39.833Z,-57.00
2018-04-06T11:16:39.805Z,-57.00
2018-04-06T11:17:39.777Z,-58.00
2018-04-06T11:18:39.767Z,-57.00
2018-04-06T11:19:39.726Z,-57.00
2018-04-06T11:20:39.703Z,-57.00
2018-04-06T11:21:39.679Z,-57.00
2018-04-06T11:22:39.665Z,-58.00
2018-04-06T11:23:39.618Z,-57.00
2018-04-06T11:24:39.609Z,-58.00
2018-04-06T11:25:39.569Z,-58.00
2018-04-06T11:26:39.568Z,-57.00
2018-04-06T11:27:39.517Z,-58.00
2018-04-06T11:28:39.498Z,-58.00
2018-04-06T11:29:39.462Z,-58.00
2018-04-06T11:30:39.438Z,-58.00
2018-04-06T11:31:39.468Z,-58.00
2018-04-06T11:32:39.381Z,-58.00
2018-04-06T11:33:39.358Z,-58.00
2018-04-06T11:34:39.331Z,-58.00
2018-04-06T11:35:39.908Z,-58.00
2018-04-06T11:36:39.316Z,-58.00
2018-04-06T11:37:39.248Z,-58.00
2018-04-06T11:38:39.232Z,-58.00
2018-04-06T11:39:39.196Z,-58.00
2018-04-06T11:40:39.167Z,-58.00
2018-04-06T11:41:39.145Z,-58.00
2018-04-06T11:42:39.119Z,-57.00
2018-04-06T11:43:39.092Z,-58.00
2018-04-06T11:44:39.063Z,-58.00
2018-04-06T11:45:39.041Z,-57.00
2018-04-06T11:46:39.012Z,-57.00
2018-04-06T11:47:38.981Z,-58.00
2018-04-06T11:48:38.958Z,-58.00
2018-04-06T11:49:38.944Z,-58.00
2018-04-06T11:50:38.901Z,-58.00
2018-04-06T11:51:38.879Z,-58.00
2018-04-06T11:52:38.854Z,-58.00
2018-04-06T11:53:38.828Z,-58.00
2018-04-06T11:54:38.801Z,-58.00
2018-04-06T11:55:38.780Z,-57.00
2018-04-06T11:56:38.747Z,-57.00
2018-04-06T11:57:38.721Z,-57.00
2018-04-06T11:58:38.707Z,-58.00
2018-04-06T11:59:38.671Z,-58.00
2018-04-06T12:00:38.650Z,-58.00
2018-04-06T12:01:38.614Z,-57.00
2018-04-06T12:02:38.588Z,-58.00
2018-04-06T12:03:38.569Z,-58.00
2018-04-06T12:04:38.542Z,-58.00
2018-04-06T12:05:38.524Z,-57.00
2018-04-06T12:06:38.485Z,-58.00
2018-04-06T12:07:38.460Z,-57.00
2018-04-06T12:08:38.434Z,-58.00
2018-04-06T12:09:38.407Z,-58.00
2018-04-06T12:10:38.381Z,-58.00
2018-04-06T12:11:38.351Z,-58.00
2018-04-06T12:12:38.329Z,-58.00
2018-04-06T12:13:38.299Z,-58.00
2018-04-06T12:14:38.284Z,-57.00
2018-04-06T12:15:38.247Z,-57.00
2018-04-06T12:16:38.219Z,-57.00
2018-04-06T12:17:38.203Z,-58.00
2018-04-06T12:18:38.167Z,-57.00
2018-04-06T12:19:38.143Z,-58.00
2018-04-06T12:20:38.116Z,-58.00
2018-04-06T12:21:38.100Z,-58.00
2018-04-06T12:22:38.070Z,-58.00
2018-04-06T12:23:38.040Z,-58.00
2018-04-06T12:24:38.014Z,-58.00
2018-04-06T12:25:37.993Z,-57.00
2018-04-06T12:26:37.956Z,-58.00
2018-04-06T12:27:37.936Z,-58.00
2018-04-06T12:28:37.908Z,-57.00